Аэропорт: Уральск. Уральск

ICAO: UARR

METAR:
2019/05/26 14:00
UARR 261400Z 24002MPS 210V280 9999 BKN050CB BKN100 25/09 Q1012 R22/CLRD70 NOSIG RMK QFE756/1008
METAR:
2015/07/31 21:21
TAF 
      AMD TAF 
      AMD UARR 312316Z 3121/0109 VRB02MPS CAVOK 
      TEMPO 0106/0109 18005MPS